Dades meteomassalio
Diari Summary for Juny 17, 2017 Units:  Metric    English   Both
« Previous Day
Next Day »
Diari Semanal Mensual Anual Personalitzat
  Maxima: Minima: Mijana:
Temperatura: -17.8 °C -8.6 °C -2.3 °C
Rosada: -17.8 °C -13.4 °C -10.7 °C
Humitat: Humidity % 17 % 43 %
Velocitat del vent: 0 km/h 0 km/h 9 km/h
Racha vent: 0 km/h - -
Vent:- - SSW
Pressio: 0 hPa 34256.2 hPa -
Pluja: 0 mm    
Historical Graphs
 
 
Tabular Data for Juny 17, 2017
Time Temperature Dew Point Pressure Wind Wind Speed Wind Gust Humidity Rainfall Rate (Hourly) solar Conditions
-17.8 °C -17.8 °C 0 hPa Calm     Humidity % 0 mm SolarRadiationWatts/m^2 W/m2 Conditions
00:02 -4.2 °C -10.2 °C 34442.4 hPa Calm     51 % 0 mm 0.0 W/m2 CLR
00:07 -4.2 °C -10.2 °C 34442.4 hPa Calm     51 % 0 mm 0.0 W/m2 CLR
00:12 -4.3 °C -10.1 °C 34442.4 hPa Calm     52 % 0 mm 0.0 W/m2 CLR
00:17 -4.3 °C -10.2 °C 34442.4 hPa Calm     52 % 0 mm 0.0 W/m2 CLR
00:22 -4.4 °C -10.1 °C 34442.4 hPa Calm     53 % 0 mm 0.0 W/m2 CLR
00:27 -4.5 °C -10.1 °C 34442.4 hPa Calm     53 % 0 mm 0.0 W/m2 CLR
00:32 -4.5 °C -10.3 °C 34452.6 hPa Calm     52 % 0 mm 0.0 W/m2 CLR
00:37 -4.5 °C -10.2 °C 34452.6 hPa Calm     53 % 0 mm 0.0 W/m2 CLR
00:42 -4.5 °C -10.2 °C 34452.6 hPa Calm     53 % 0 mm 0.0 W/m2 CLR
00:47 -4.5 °C -9.1 °C 34452.6 hPa Calm     60 % 0 mm 0.0 W/m2 CLR
00:52 -4.6 °C -9 °C 34452.6 hPa Calm     61 % 0 mm 0.0 W/m2 CLR
00:57 -4.7 °C -9.1 °C 34452.6 hPa Calm     61 % 0 mm 0.0 W/m2 CLR
01:02 -4.8 °C -9.1 °C 34452.6 hPa Calm     62 % 0 mm 0.0 W/m2 CLR
01:07 -4.8 °C -9.4 °C 34462.7 hPa Calm     60 % 0 mm 0.0 W/m2 CLR
01:12 -4.9 °C -10.1 °C 34462.7 hPa Calm     56 % 0 mm 0.0 W/m2 CLR
01:17 -4.9 °C -9.8 °C 34462.7 hPa Calm     58 % 0 mm 0.0 W/m2 CLR
01:22 -4.9 °C -9.1 °C 34462.7 hPa Calm     62 % 0 mm 0.0 W/m2 CLR
01:27 -5 °C -9.4 °C 34462.7 hPa Calm     61 % 0 mm 0.0 W/m2 CLR
01:32 -5 °C -10.2 °C 34462.7 hPa Calm     56 % 0 mm 0.0 W/m2 CLR
01:37 -4.9 °C -10.4 °C 34462.7 hPa Calm     54 % 0 mm 0.0 W/m2 CLR
01:42 -4.8 °C -11.5 °C 34462.7 hPa Calm     47 % 0 mm 0.0 W/m2 CLR
01:47 -4.6 °C -11.2 °C 34462.7 hPa Calm     47 % 0 mm 0.0 W/m2 CLR
01:52 -4.5 °C -11.7 °C 34462.7 hPa Calm     44 % 0 mm 0.0 W/m2 CLR
01:57 -4.4 °C -11.7 °C 34462.7 hPa Calm     44 % 0 mm 0.0 W/m2 CLR
02:02 -4.4 °C -11.5 °C 34462.7 hPa Calm     45 % 0 mm 0.0 W/m2 CLR
02:07 -4.5 °C -11.3 °C 34462.7 hPa Calm     46 % 0 mm 0.0 W/m2 CLR
02:12 -4.6 °C -10.9 °C 34462.7 hPa Calm     49 % 0 mm 0.0 W/m2 CLR
02:17 -4.8 °C -10.6 °C 34462.7 hPa Calm     52 % 0 mm 0.0 W/m2 CLR
02:22 -4.9 °C -10.7 °C 34462.7 hPa Calm     52 % 0 mm 0.0 W/m2 CLR
02:28 -5.1 °C -10.2 °C 34462.7 hPa Calm     56 % 0 mm 0.0 W/m2 CLR
02:33 -5.3 °C -10.9 °C 34462.7 hPa Calm     53 % 0 mm 0.0 W/m2 CLR
02:38 -5.4 °C -11 °C 34462.7 hPa Calm     53 % 0 mm 0.0 W/m2 CLR
02:43 -5.6 °C -11.3 °C 34462.7 hPa Calm     52 % 0 mm 0.0 W/m2 CLR
02:48 -5.7 °C -11.7 °C 34462.7 hPa Calm     50 % 0 mm 0.0 W/m2 CLR
02:53 -5.7 °C -11.3 °C 34462.7 hPa Calm     53 % 0 mm 0.0 W/m2 CLR
02:58 -5.9 °C -11.6 °C 34462.7 hPa Calm     52 % 0 mm 0.0 W/m2 CLR
03:03 -5.9 °C -11.8 °C 34462.7 hPa Calm     51 % 0 mm 0.0 W/m2 CLR
03:08 -5.9 °C -11.8 °C 34476.3 hPa Calm     51 % 0 mm 0.0 W/m2 CLR
03:13 -5.9 °C -12 °C 34462.7 hPa Calm     50 % 0 mm 0.0 W/m2 CLR
03:18 -5.9 °C -11.8 °C 34462.7 hPa Calm     51 % 0 mm 0.0 W/m2 CLR
03:23 -6 °C -11.7 °C 34476.3 hPa Calm     52 % 0 mm 0.0 W/m2 CLR
03:28 -6 °C -12.2 °C 34476.3 hPa Calm     49 % 0 mm 0.0 W/m2 CLR
03:33 -6 °C -12.2 °C 34476.3 hPa Calm     49 % 0 mm 0.0 W/m2 CLR
03:38 -5.9 °C -12.2 °C 34462.7 hPa Calm     49 % 0 mm 0.0 W/m2 CLR
03:43 -5.9 °C -12.4 °C 34462.7 hPa Calm     47 % 0 mm 0.0 W/m2 CLR
03:48 -5.9 °C -11.6 °C 34476.3 hPa Calm     52 % 0 mm 0.0 W/m2 CLR
03:53 -6.2 °C -10.9 °C 34476.3 hPa Calm     58 % 0 mm 0.0 W/m2 CLR
03:58 -6.4 °C -10.4 °C 34476.3 hPa Calm     63 % 0 mm 0.0 W/m2 CLR
04:03 -6.7 °C -10.6 °C 34462.7 hPa Calm     64 % 0 mm 0.0 W/m2 CLR
04:08 -7 °C -10.6 °C 34476.3 hPa Calm     66 % 0 mm 0.0 W/m2 CLR
04:13 -7.1 °C -10.8 °C 34476.3 hPa Calm     65 % 0 mm 0.0 W/m2 CLR
04:18 -7 °C -11.4 °C 34476.3 hPa Calm     60 % 0 mm 0.0 W/m2 CLR
04:23 -6.9 °C -11.3 °C 34476.3 hPa Calm     60 % 0 mm 0.0 W/m2 CLR
04:28 -6.8 °C -10.8 °C 34476.3 hPa Calm     63 % 0 mm 0.0 W/m2 CLR
04:33 -6.9 °C -10.5 °C 34476.3 hPa Calm     66 % 0 mm 0.0 W/m2 CLR
04:38 -7.1 °C -10.6 °C 34476.3 hPa Calm     67 % 0 mm 0.0 W/m2 CLR
04:43 -7.3 °C -10.7 °C 34476.3 hPa Calm     68 % 0 mm 0.0 W/m2 CLR
04:48 -7.5 °C -10.7 °C 34476.3 hPa Calm     69 % 0 mm 0.0 W/m2 CLR
04:53 -7.6 °C -10.9 °C 34476.3 hPa Calm     68 % 0 mm 0.0 W/m2 CLR
04:58 -7.6 °C -10.9 °C 34476.3 hPa Calm     68 % 0 mm 0.0 W/m2 CLR
05:03 -7.6 °C -11.6 °C 34476.3 hPa Calm     63 % 0 mm 0.0 W/m2 CLR
05:08 -7.7 °C -11.6 °C 34476.3 hPa Calm     63 % 0 mm 0.0 W/m2 CLR
05:13 -7.7 °C -11.7 °C 34476.3 hPa Calm     63 % 0 mm 0.0 W/m2 CLR
05:18 -7.8 °C -11.8 °C 34462.7 hPa Calm     63 % 0 mm 0.0 W/m2 CLR
05:23 -7.8 °C -11.8 °C 34462.7 hPa Calm     63 % 0 mm 0.0 W/m2 CLR
05:28 -7.8 °C -11.8 °C 34462.7 hPa Calm     63 % 0 mm 0.0 W/m2 CLR
05:33 -7.7 °C -11.7 °C 34462.7 hPa Calm     63 % 0 mm 0.0 W/m2 CLR
05:38 -7.8 °C -11.6 °C 34462.7 hPa Calm     64 % 0 mm 0.0 W/m2 CLR
05:43 -7.8 °C -11.7 °C 34462.7 hPa Calm     64 % 0 mm 0.0 W/m2 CLR
05:48 -7.9 °C -11.9 °C 34476.3 hPa Calm     63 % 0 mm 0.0 W/m2 CLR
05:53 -8.1 °C -11.9 °C 34476.3 hPa Calm     64 % 0 mm 0.0 W/m2 CLR
05:58 -8.2 °C -11.4 °C 34462.7 hPa Calm     68 % 0 mm 0.0 W/m2 CLR
06:03 -8.2 °C -11.3 °C 34476.3 hPa Calm     70 % 0 mm 0.0 W/m2 CLR
06:08 -8.3 °C -11.4 °C 34476.3 hPa Calm     70 % 0 mm 0.0 W/m2 CLR
06:13 -8.4 °C -11.5 °C 34476.3 hPa Calm     70 % 0 mm 0.0 W/m2 CLR
06:18 -8.6 °C -11.7 °C 34476.3 hPa Calm     69 % 0 mm 0.0 W/m2 OVC
06:23 -8.6 °C -11.8 °C 34476.3 hPa Calm     68 % 0 mm 0.0 W/m2 OVC
06:28 -8.5 °C -11.8 °C 34476.3 hPa Calm     68 % 0 mm 5.0 W/m2 OVC
06:33 -8.6 °C -12 °C 34476.3 hPa Calm     67 % 0 mm 7.0 W/m2 OVC
06:38 -8.5 °C -11.9 °C 34476.3 hPa Calm     67 % 0 mm 9.0 W/m2 BKN
06:43 -8.5 °C -12.1 °C 34476.3 hPa Calm     66 % 0 mm 11.0 W/m2 BKN
06:48 -8.4 °C -12 °C 34476.3 hPa Calm     66 % 0 mm 12.0 W/m2 BKN
06:53 -8.4 °C -11.9 °C 34476.3 hPa Calm     67 % 0 mm 14.0 W/m2 BKN
06:58 -8.5 °C -11.7 °C 34476.3 hPa Calm     69 % 0 mm 16.0 W/m2 BKN
07:03 -8.6 °C -11.7 °C 34476.3 hPa Calm     69 % 0 mm 21.0 W/m2 BKN
07:08 -8.6 °C -11.8 °C 34486.4 hPa Calm     69 % 0 mm 35.0 W/m2 BKN
07:13 -8.5 °C -11.6 °C 34486.4 hPa Calm     70 % 0 mm 44.0 W/m2 BKN
07:18 -8.4 °C -11.8 °C 34486.4 hPa Calm     68 % 0 mm 56.0 W/m2 SCT
07:23 -8.3 °C -11.6 °C 34486.4 hPa Calm     68 % 0 mm 69.0 W/m2 FEW
07:28 -8.2 °C -11.6 °C 34486.4 hPa Calm     67 % 0 mm 81.0 W/m2 FEW
07:33 -8 °C -11.6 °C 34486.4 hPa Calm     66 % 0 mm 95.0 W/m2 FEW
07:38 -7.8 °C -11.6 °C 34476.3 hPa Calm     65 % 0 mm 113.0 W/m2 CLR
07:43 -7.6 °C -11.3 °C 34476.3 hPa Calm     65 % 0 mm 127.0 W/m2 CLR
07:48 -7.4 °C -11.4 °C 34476.3 hPa Calm     63 % 0 mm 142.0 W/m2 CLR
07:53 -7.1 °C -11.4 °C 34476.3 hPa Calm     61 % 0 mm 160.0 W/m2 CLR
07:58 -6.9 °C -10.9 °C 34476.3 hPa Calm     63 % 0 mm 179.0 W/m2 CLR
08:03 -6.7 °C -10.8 °C 34476.3 hPa Calm     62 % 0 mm 197.0 W/m2 CLR
08:08 -6.4 °C -10.9 °C 34476.3 hPa Calm     60 % 0 mm 211.0 W/m2 CLR
08:18 -6.1 °C -10.8 °C 34476.3 hPa Calm     58 % 0 mm 244.0 W/m2 CLR
08:23 -5.9 °C -10.7 °C 34476.3 hPa Calm     58 % 0 mm 260.0 W/m2 CLR
08:28 -5.7 °C -10.4 °C 34476.3 hPa Calm     58 % 0 mm 274.0 W/m2 CLR
08:33 -5.5 °C -10.3 °C 34476.3 hPa Calm     58 % 0 mm 288.0 W/m2 CLR
08:38 -5.3 °C -10.3 °C 34462.7 hPa Calm     57 % 0 mm 306.0 W/m2 CLR
08:49 -4.6 °C -10.6 °C 34476.3 hPa West 20.9 km/h 20.9 km/h 51 % 0 mm 338.0 W/m2 CLR
08:54 -4.5 °C -10.4 °C 34462.7 hPa WNW 29.8 km/h 29.8 km/h 51 % 0 mm 352.0 W/m2 CLR
08:59 -4.3 °C -10.5 °C 34462.7 hPa NW 29.8 km/h 29.8 km/h 50 % 0 mm 371.0 W/m2 CLR
09:04 -4.2 °C -10.4 °C 34462.7 hPa WNW 23.3 km/h 23.3 km/h 50 % 0 mm 385.0 W/m2 CLR
09:09 -4.1 °C -10.5 °C 34462.7 hPa WNW 20.9 km/h 20.9 km/h 49 % 0 mm 401.0 W/m2 CLR
09:14 -4.1 °C -10.6 °C 34462.7 hPa West 26.9 km/h 26.9 km/h 48 % 0 mm 415.0 W/m2 CLR
09:19 -4 °C -10.7 °C 34462.7 hPa WNW 25.9 km/h 25.9 km/h 47 % 0 mm 429.0 W/m2 CLR
09:24 -3.9 °C -10.7 °C 34462.7 hPa WNW 26.9 km/h 26.9 km/h 47 % 0 mm 446.0 W/m2 CLR
09:29 -3.8 °C -10.6 °C 34462.7 hPa WNW 20.9 km/h 20.9 km/h 47 % 0 mm 461.0 W/m2 CLR
09:34 -3.7 °C -10.4 °C 34462.7 hPa WNW 23.8 km/h 23.8 km/h 47 % 0 mm 475.0 W/m2 CLR
09:39 -3.7 °C -10.4 °C 34462.7 hPa WNW 25.9 km/h 25.9 km/h 47 % 0 mm 489.0 W/m2 CLR
09:44 -3.6 °C -10.3 °C 34462.7 hPa Calm     47 % 0 mm 504.0 W/m2 CLR
09:49 -3.4 °C -10.3 °C 34462.7 hPa NW 29.8 km/h 29.8 km/h 46 % 0 mm 520.0 W/m2 CLR
09:54 -3.4 °C -10.3 °C 34462.7 hPa NW 29.8 km/h 29.8 km/h 46 % 0 mm 536.0 W/m2 CLR
09:59 -3.3 °C -10.4 °C 34462.7 hPa WNW 29.8 km/h 29.8 km/h 45 % 0 mm 548.0 W/m2 CLR
10:04 -3.2 °C -10.2 °C 34462.7 hPa WNW 32.8 km/h 32.8 km/h 46 % 0 mm 564.0 W/m2 CLR
10:09 -3.2 °C -10.2 °C 34462.7 hPa NW 32.8 km/h 32.8 km/h 46 % 0 mm 580.0 W/m2 CLR
10:14 -3.1 °C -10.2 °C 34462.7 hPa WNW 29.8 km/h 29.8 km/h 45 % 0 mm 591.0 W/m2 CLR
10:19 -3 °C -10.2 °C 34452.6 hPa NW 29.8 km/h 29.8 km/h 45 % 0 mm 605.0 W/m2 CLR
10:24 -2.9 °C -10.3 °C 34452.6 hPa NW 26.9 km/h 26.9 km/h 44 % 0 mm 621.0 W/m2 CLR
10:29 -2.8 °C -10.4 °C 34452.6 hPa WNW 6 km/h 6 km/h 43 % 0 mm 638.0 W/m2 CLR
10:34 -2.7 °C -10.3 °C 34452.6 hPa NNW 29.8 km/h 29.8 km/h 43 % 0 mm 649.0 W/m2 CLR
10:39 -2.7 °C -10.2 °C 34452.6 hPa NNW 32.8 km/h 32.8 km/h 43 % 0 mm 659.0 W/m2 CLR
10:44 -2.6 °C -10.4 °C 34452.6 hPa West 29.8 km/h 29.8 km/h 42 % 0 mm 673.0 W/m2 CLR
10:49 -2.7 °C -10.3 °C 34452.6 hPa West 29.8 km/h 29.8 km/h 43 % 0 mm 687.0 W/m2 CLR
10:54 -2.7 °C -10.2 °C 34452.6 hPa West 9 km/h 9 km/h 43 % 0 mm 700.0 W/m2 CLR
10:59 -2.5 °C -10.1 °C 34442.4 hPa NW 31.1 km/h 31.1 km/h 43 % 0 mm 714.0 W/m2 CLR
11:04 -2.3 °C -10.2 °C 34442.4 hPa NW 26.9 km/h 26.9 km/h 42 % 0 mm 724.0 W/m2 CLR
11:09 -2.2 °C -9.8 °C 34442.4 hPa West 29.8 km/h 29.8 km/h 43 % 0 mm 737.0 W/m2 CLR
11:14 -2.3 °C -9.9 °C 34442.4 hPa Calm     43 % 0 mm 747.0 W/m2 CLR
11:19 -2.1 °C -10.2 °C 34442.4 hPa NNW 32.8 km/h 32.8 km/h 41 % 0 mm 758.0 W/m2 CLR
11:24 -2 °C -10.1 °C 34442.4 hPa NNW 10.3 km/h 10.3 km/h 41 % 0 mm 768.0 W/m2 CLR
11:29 -1.8 °C -9.9 °C 34428.8 hPa North 23.8 km/h 23.8 km/h 41 % 0 mm 780.0 W/m2 CLR
11:34 -1.8 °C -10.1 °C 34428.8 hPa Calm     40 % 0 mm 793.0 W/m2 CLR
11:39 -1.6 °C -9.7 °C 34428.8 hPa NNW 29.8 km/h 29.8 km/h 41 % 0 mm 802.0 W/m2 CLR
11:44 -1.6 °C -9.9 °C 34428.8 hPa WNW 32.8 km/h 32.8 km/h 40 % 0 mm 807.0 W/m2 CLR
11:49 -1.5 °C -10.2 °C 34428.8 hPa NW 26.9 km/h 26.9 km/h 38 % 0 mm 823.0 W/m2 CLR
11:54 -1.4 °C -9.9 °C 34428.8 hPa WSW 29.8 km/h 29.8 km/h 39 % 0 mm 830.0 W/m2 CLR
11:59 -1.3 °C -10.2 °C 34428.8 hPa NW 26.9 km/h 26.9 km/h 38 % 0 mm 838.0 W/m2 CLR
12:00 -1.3 °C -10.2 °C 34428.8 hPa NNW 26.9 km/h 26.9 km/h 38 % 0 mm 838.0 W/m2 CLR
12:05 -1.2 °C -9.9 °C 34418.7 hPa WNW 26.9 km/h 26.9 km/h 38 % 0 mm 847.0 W/m2 CLR
12:10 -1 °C -10.1 °C 34428.8 hPa NNW 17.9 km/h   37 % 0 mm 856.0 W/m2 CLR
12:15 -0.9 °C -10.2 °C 34428.8 hPa NNW 32.8 km/h 32.8 km/h 36 % 0 mm 865.0 W/m2 CLR
12:20 -0.9 °C -10.2 °C 34418.7 hPa NW 38.8 km/h 38.8 km/h 36 % 0 mm 874.0 W/m2 CLR
12:25 -0.8 °C -10.2 °C 34418.7 hPa WNW 29.8 km/h 29.8 km/h 36 % 0 mm 881.0 W/m2 CLR
12:30 -0.8 °C -10.1 °C 34418.7 hPa NNW 9 km/h   36 % 0 mm 888.0 W/m2 CLR
12:35 -0.6 °C -10.4 °C 34418.7 hPa NNW 44.7 km/h 44.7 km/h 34 % 0 mm 896.0 W/m2 CLR
12:40 -0.6 °C -10.4 °C 34418.7 hPa North 29.8 km/h 29.8 km/h 34 % 0 mm 898.0 W/m2 CLR
12:45 -0.5 °C -10.6 °C 34418.7 hPa WNW 23.8 km/h 23.8 km/h 33 % 0 mm 909.0 W/m2 CLR
12:50 -0.6 °C -10.4 °C 34405.1 hPa NNW 25.9 km/h 25.9 km/h 34 % 0 mm 912.0 W/m2 CLR
12:55 -0.4 °C -10.3 °C 34405.1 hPa North 26.9 km/h 26.9 km/h 34 % 0 mm 918.0 W/m2 CLR
13:00 -0.4 °C -9.9 °C 34405.1 hPa North 25.9 km/h 25.9 km/h 35 % 0 mm 921.0 W/m2 CLR
13:05 -0.2 °C -10.4 °C 34405.1 hPa NNW 28.5 km/h 28.5 km/h 33 % 0 mm 925.0 W/m2 CLR
13:10 -0.2 °C -10.3 °C 34405.1 hPa NW 32.8 km/h 32.8 km/h 33 % 0 mm 933.0 W/m2 CLR
13:15 -0.2 °C -10.3 °C 34405.1 hPa Calm     33 % 0 mm 933.0 W/m2 CLR
13:20 -0.1 °C -10.5 °C 34405.1 hPa WSW 11.9 km/h 11.9 km/h 32 % 0 mm 939.0 W/m2 CLR
13:25 0 °C -10.4 °C 34405.1 hPa NW 33.6 km/h 33.6 km/h 32 % 0 mm 940.0 W/m2 CLR
13:30 0.2 °C -10.5 °C 34395 hPa Calm     31 % 0 mm 942.0 W/m2 CLR
13:35 0.3 °C -10.7 °C 34395 hPa NNW 9 km/h 9 km/h 30 % 0 mm 946.0 W/m2 CLR
13:40 0.4 °C -10.3 °C 34395 hPa WNW 12.9 km/h 12.9 km/h 31 % 0 mm 946.0 W/m2 CLR
13:45 0.5 °C -10.3 °C 34395 hPa NNW 20.9 km/h 20.9 km/h 31 % 0 mm 949.0 W/m2 CLR
13:50 0.4 °C -10.1 °C 34384.8 hPa NNE 11.9 km/h   32 % 0 mm 949.0 W/m2 CLR
13:55 0.6 °C -10.2 °C 34384.8 hPa Calm     31 % 0 mm 947.0 W/m2 CLR
14:00 0.7 °C -10.1 °C 34384.8 hPa Calm     31 % 0 mm 949.0 W/m2 CLR
14:05 0.9 °C -9.9 °C 34384.8 hPa Calm     31 % 0 mm 947.0 W/m2 CLR
14:10 0.9 °C -10.2 °C 34384.8 hPa NNE 12.9 km/h 12.9 km/h 30 % 0 mm 947.0 W/m2 CLR
14:15 0.8 °C -9.9 °C 34384.8 hPa NNE 17.9 km/h 17.9 km/h 31 % 0 mm 947.0 W/m2 CLR
14:20 0.7 °C -10.1 °C 34371.3 hPa Calm     31 % 0 mm 947.0 W/m2 CLR
14:25 0.8 °C -9.9 °C 34371.3 hPa NW 23.8 km/h 23.8 km/h 31 % 0 mm 944.0 W/m2 CLR
14:30 0.8 °C -10 °C 34371.3 hPa North 7.7 km/h 7.7 km/h 31 % 0 mm 939.0 W/m2 CLR
14:35 0.8 °C -9.7 °C 34371.3 hPa Calm     32 % 0 mm 942.0 W/m2 CLR
14:40 1 °C -9.8 °C 34371.3 hPa Calm     31 % 0 mm 935.0 W/m2 CLR
14:45 1.3 °C -10.2 °C 34361.1 hPa North 15 km/h 15 km/h 29 % 0 mm 935.0 W/m2 CLR
14:50 1.3 °C -10.1 °C 34361.1 hPa North 10.3 km/h 10.3 km/h 29 % 0 mm 935.0 W/m2 CLR
14:55 1.3 °C -9.8 °C 34361.1 hPa Calm     30 % 0 mm 928.0 W/m2 CLR
15:00 1.4 °C -10 °C 34361.1 hPa Calm     29 % 0 mm 928.0 W/m2 CLR
15:03 1.6 °C -9.9 °C 34347.6 hPa NW 18.2 km/h 18.2 km/h 29 % 0 mm 923.0 W/m2 CLR
15:08 1.6 °C -9.9 °C 34347.6 hPa NW 20.8 km/h 20.8 km/h 29 % 0 mm 923.0 W/m2 CLR
15:13 1.4 °C -10.1 °C 34347.6 hPa NNW 9 km/h 9 km/h 29 % 0 mm 916.0 W/m2 CLR
15:18 1.4 °C -10.3 °C 34347.6 hPa Calm     28 % 0 mm 907.0 W/m2 CLR
15:23 1.6 °C -9.9 °C 34347.6 hPa NNW 9 km/h 9 km/h 29 % 0 mm 900.0 W/m2 CLR
15:28 1.6 °C -10.2 °C 34337.4 hPa North 9 km/h 9 km/h 28 % 0 mm 896.0 W/m2 CLR
15:33 1.7 °C -10.1 °C 34337.4 hPa NE 18.2 km/h 18.2 km/h 28 % 0 mm 888.0 W/m2 CLR
15:38 1.8 °C -10.1 °C 34337.4 hPa Calm     28 % 0 mm 884.0 W/m2 CLR
15:43 1.9 °C -10.6 °C 34327.3 hPa NNE 20.9 km/h 20.9 km/h 26 % 0 mm 879.0 W/m2 CLR
15:48 1.9 °C -10.9 °C 34327.3 hPa NE 20.9 km/h 20.9 km/h 25 % 0 mm 870.0 W/m2 CLR
15:53 1.9 °C -10.9 °C 34327.3 hPa North 3.1 km/h   25 % 0 mm 868.0 W/m2 CLR
15:58 1.9 °C -11.2 °C 34327.3 hPa North 17.9 km/h 17.9 km/h 24 % 0 mm 860.0 W/m2 CLR
16:03 2 °C -11.6 °C 34327.3 hPa NE 9 km/h 9 km/h 23 % 0 mm 854.0 W/m2 CLR
16:08 2.1 °C -11.5 °C 34327.3 hPa Calm     23 % 0 mm 838.0 W/m2 CLR
16:13 2.1 °C -11.8 °C 34313.7 hPa WNW 15 km/h 15 km/h 22 % 0 mm 828.0 W/m2 CLR
16:18 2.1 °C -11.8 °C 34313.7 hPa Calm     22 % 0 mm 814.0 W/m2 CLR
16:23 2.1 °C -12.2 °C 34313.7 hPa Calm     21 % 0 mm 810.0 W/m2 CLR
16:28 2.2 °C -12.1 °C 34313.7 hPa Calm     21 % 0 mm 795.0 W/m2 CLR
16:33 2.3 °C -12.4 °C 34313.7 hPa NE 6 km/h 6 km/h 20 % 0 mm 788.0 W/m2 CLR
16:38 2.4 °C -13.2 °C 34313.7 hPa Calm     18 % 0 mm 780.0 W/m2 CLR
16:43 2.4 °C -12.7 °C 34303.6 hPa Calm     19 % 0 mm 768.0 W/m2 CLR
16:44 2.4 °C -12.7 °C 34303.6 hPa Calm     19 % 0 mm 765.0 W/m2 CLR
16:49 2.5 °C -12.3 °C 34303.6 hPa ESE 7.7 km/h 7.7 km/h 20 % 0 mm 758.0 W/m2 CLR
16:54 2.5 °C -12.3 °C 34303.6 hPa Calm   0.5 km/h 20 % 0 mm 744.0 W/m2 CLR
16:59 2.4 °C -11.9 °C 34303.6 hPa Calm     21 % 0 mm 729.0 W/m2 CLR
17:04 2.6 °C -11.8 °C 34293.4 hPa ENE 9 km/h 9 km/h 21 % 0 mm 717.0 W/m2 CLR
17:09 2.6 °C -11.8 °C 34293.4 hPa ENE 20.9 km/h 20.9 km/h 21 % 0 mm 705.0 W/m2 CLR
17:14 2.6 °C -11.8 °C 34293.4 hPa NNE 15.6 km/h 15.6 km/h 21 % 0 mm 693.0 W/m2 CLR
17:19 2.6 °C -11.8 °C 34293.4 hPa Calm   1 km/h 21 % 0 mm 680.0 W/m2 CLR
17:24 2.6 °C -11.8 °C 34293.4 hPa ENE 9 km/h 9 km/h 21 % 0 mm 666.0 W/m2 CLR
17:29 2.6 °C -12.2 °C 34279.9 hPa ENE 6 km/h 6 km/h 20 % 0 mm 654.0 W/m2 CLR
17:34 2.6 °C -12.6 °C 34279.9 hPa ENE 9 km/h 9 km/h 19 % 0 mm 642.0 W/m2 CLR
17:39 2.7 °C -13 °C 34279.9 hPa ENE 9 km/h 9 km/h 18 % 0 mm 629.0 W/m2 CLR
17:44 2.7 °C -13.4 °C 34279.9 hPa NE 11.9 km/h 11.9 km/h 17 % 0 mm 612.0 W/m2 CLR
17:49 2.7 °C -13.4 °C 34279.9 hPa ENE 10.3 km/h 10.3 km/h 17 % 0 mm 598.0 W/m2 CLR
17:54 2.8 °C -12.9 °C 34269.7 hPa Calm     18 % 0 mm 587.0 W/m2 CLR
17:59 2.9 °C -12.8 °C 34269.7 hPa NNE 11.9 km/h 11.9 km/h 18 % 0 mm 578.0 W/m2 CLR
18:04 2.9 °C -12.8 °C 34269.7 hPa ENE 9 km/h 9 km/h 18 % 0 mm 561.0 W/m2 CLR
18:09 2.8 °C -12.9 °C 34269.7 hPa SE 9 km/h 9 km/h 18 % 0 mm 548.0 W/m2 CLR
18:14 2.7 °C -13 °C 34269.7 hPa ENE 10.3 km/h 10.3 km/h 18 % 0 mm 533.0 W/m2 CLR
18:19 2.7 °C -13 °C 34269.7 hPa Calm     18 % 0 mm 520.0 W/m2 CLR
18:24 2.7 °C -12.1 °C 34269.7 hPa NNE 3.1 km/h   20 % 0 mm 499.0 W/m2 CLR
18:29 2.8 °C -12 °C 34269.7 hPa NE 11.9 km/h 11.9 km/h 20 % 0 mm 489.0 W/m2 CLR
18:34 2.9 °C -11.9 °C 34256.2 hPa North 9 km/h 9 km/h 20 % 0 mm 469.0 W/m2 CLR
18:39 3 °C -12.3 °C 34256.2 hPa NNW 9 km/h 9 km/h 19 % 0 mm 459.0 W/m2 CLR
18:44 3 °C -12.3 °C 34256.2 hPa North 11.9 km/h 11.9 km/h 19 % 0 mm 446.0 W/m2 CLR
18:49 2.9 °C -12.3 °C 34256.2 hPa North 15.6 km/h 15.6 km/h 19 % 0 mm 431.0 W/m2 CLR
18:54 2.9 °C -12.3 °C 34256.2 hPa Calm     19 % 0 mm 413.0 W/m2 CLR
18:59 2.9 °C -12.4 °C 34256.2 hPa NE 11.9 km/h 11.9 km/h 19 % 0 mm 399.0 W/m2 CLR
19:04 2.8 °C -12 °C 34256.2 hPa Calm     20 % 0 mm 385.0 W/m2 CLR
19:09 2.9 °C -12.4 °C 34256.2 hPa North 11.9 km/h 11.9 km/h 19 % 0 mm 366.0 W/m2 CLR
19:14 2.9 °C -12.4 °C 34256.2 hPa Calm     19 % 0 mm 346.0 W/m2 CLR
19:19 2.9 °C -12.4 °C 34256.2 hPa Calm     19 % 0 mm 334.0 W/m2 CLR
19:24 2.8 °C -12 °C 34256.2 hPa Calm     20 % 0 mm 320.0 W/m2 CLR
19:29 2.9 °C -11.9 °C 34256.2 hPa Calm   0.3 km/h 20 % 0 mm 306.0 W/m2 CLR
19:34 2.8 °C -11.6 °C 34256.2 hPa Calm     21 % 0 mm 287.0 W/m2 CLR
19:39 2.8 °C -12.4 °C 34256.2 hPa Calm     19 % 0 mm 269.0 W/m2 CLR
19:44 2.9 °C -11.9 °C 34256.2 hPa ENE 5.1 km/h 5.1 km/h 20 % 0 mm 255.0 W/m2 CLR
19:49 2.7 °C -12.5 °C 34256.2 hPa Calm     19 % 0 mm 239.0 W/m2 CLR
19:54 2.7 °C -12.1 °C 34256.2 hPa NE 9 km/h 9 km/h 20 % 0 mm 218.0 W/m2 CLR
19:59 2.6 °C -11.8 °C 34256.2 hPa Calm     21 % 0 mm 202.0 W/m2 CLR
20:04 2.5 °C -11.8 °C 34256.2 hPa Calm     21 % 0 mm 185.0 W/m2 CLR
20:09 2.4 °C -12.3 °C 34256.2 hPa Calm     20 % 0 mm 167.0 W/m2 CLR
20:14 2.4 °C -12.3 °C 34256.2 hPa NE 2.6 km/h   20 % 0 mm 148.0 W/m2 CLR
20:19 2.4 °C -11.9 °C 34256.2 hPa NNE 3.1 km/h 3.1 km/h 21 % 0 mm 132.0 W/m2 CLR
20:24 2.1 °C -9.4 °C 34256.2 hPa East 26.9 km/h 26.9 km/h 29 % 0 mm 116.0 W/m2 CLR
20:29 1.5 °C -8.8 °C 34256.2 hPa ESE 23.8 km/h 23.8 km/h 33 % 0 mm 100.0 W/m2 CLR
20:34 1.2 °C -8.8 °C 34256.2 hPa ESE 20.9 km/h 20.9 km/h 34 % 0 mm 86.0 W/m2 CLR
20:39 1 °C -8.5 °C 34256.2 hPa ESE 26.9 km/h 26.9 km/h 36 % 0 mm 70.0 W/m2 FEW
20:44 0.9 °C -8.4 °C 34256.2 hPa ESE 20.9 km/h 20.9 km/h 37 % 0 mm 42.0 W/m2 SCT
20:49 0.8 °C -8.2 °C 34256.2 hPa SE 9 km/h   38 % 0 mm 46.0 W/m2 SCT
20:54 0.7 °C -8.6 °C 34256.2 hPa SE 26.9 km/h 26.9 km/h 37 % 0 mm 39.0 W/m2 BKN
20:59 0.6 °C -8.4 °C 34256.2 hPa SE 12.9 km/h 12.9 km/h 38 % 0 mm 28.0 W/m2 BKN
21:04 0.6 °C -8.4 °C 34256.2 hPa SE 20.9 km/h 20.9 km/h 38 % 0 mm 21.0 W/m2 BKN
21:09 0.4 °C -8.5 °C 34256.2 hPa SE 20.9 km/h 20.9 km/h 38 % 0 mm 16.0 W/m2 BKN
21:14 0.4 °C -8.6 °C 34256.2 hPa Calm     38 % 0 mm 14.0 W/m2 BKN
21:19 0.3 °C -8.7 °C 34256.2 hPa SE 23.8 km/h 23.8 km/h 38 % 0 mm 11.0 W/m2 BKN
21:21 0.3 °C -8.7 °C 34256.2 hPa SE 26.9 km/h 26.9 km/h 38 % 0 mm 11.0 W/m2 BKN
21:25 0.2 °C -8.8 °C 34256.2 hPa SE 23.8 km/h 23.8 km/h 38 % 0 mm 9.0 W/m2 BKN
21:30 0.1 °C -8.7 °C 34256.2 hPa SE 15.6 km/h 15.6 km/h 39 % 0 mm 7.0 W/m2 BKN
21:35 -0.1 °C -8.8 °C 34256.2 hPa SE 17.9 km/h 17.9 km/h 39 % 0 mm 5.0 W/m2 OVC
21:40 -0.2 °C -8.7 °C 34256.2 hPa SE 15 km/h 15 km/h 40 % 0 mm 0.0 W/m2 OVC
21:45 -0.2 °C -8.7 °C 34256.2 hPa SSE 20.9 km/h 20.9 km/h 40 % 0 mm 0.0 W/m2 OVC
21:50 -0.3 °C -8.6 °C 34269.7 hPa SE 20.9 km/h 20.9 km/h 41 % 0 mm 0.0 W/m2 CLR
21:55 -0.4 °C -8.7 °C 34269.7 hPa SSE 17.9 km/h 17.9 km/h 41 % 0 mm 0.0 W/m2 CLR
21:56 -0.4 °C -8.7 °C 34269.7 hPa SSE 23.8 km/h 23.8 km/h 41 % 0 mm 0.0 W/m2 CLR
22:01 -0.5 °C -8.6 °C 34269.7 hPa SE 26.9 km/h 26.9 km/h 42 % 0 mm 0.0 W/m2 CLR
22:06 -0.6 °C -8.4 °C 34269.7 hPa SE 11.9 km/h 11.9 km/h 43 % 0 mm 0.0 W/m2 CLR
22:11 -0.7 °C -8.3 °C 34269.7 hPa Calm     44 % 0 mm 0.0 W/m2 CLR
22:16 -0.8 °C -8.4 °C 34279.9 hPa Calm     44 % 0 mm 0.0 W/m2 CLR
22:17 -0.9 °C -8.4 °C 34279.9 hPa SE 9 km/h 9 km/h 44 % 0 mm 0.0 W/m2 CLR
22:22 -0.9 °C -8.3 °C 34279.9 hPa SSE 18.2 km/h 18.2 km/h 45 % 0 mm 0.0 W/m2 CLR
22:27 -1.1 °C -8.2 °C 34279.9 hPa SE 15.6 km/h 15.6 km/h 46 % 0 mm 0.0 W/m2 CLR
22:32 -1.2 °C -8.2 °C 34279.9 hPa SSE 20.9 km/h 20.9 km/h 47 % 0 mm 0.0 W/m2 CLR
22:37 -1.3 °C -8.2 °C 34279.9 hPa SE 18.2 km/h 18.2 km/h 47 % 0 mm 0.0 W/m2 CLR
22:42 -1.4 °C -8.3 °C 34279.9 hPa SE 20.9 km/h 20.9 km/h 47 % 0 mm 0.0 W/m2 CLR
22:43 -1.4 °C -8.2 °C 34279.9 hPa SE 20.9 km/h 20.9 km/h 48 % 0 mm 0.0 W/m2 CLR
22:48 -1.5 °C -8.3 °C 34279.9 hPa SSE 17.9 km/h 17.9 km/h 48 % 0 mm 0.0 W/m2 CLR
22:53 -1.6 °C -8.3 °C 34293.4 hPa SE 15 km/h 15 km/h 48 % 0 mm 0.0 W/m2 CLR
22:58 -1.6 °C -8.4 °C 34293.4 hPa ESE 17.9 km/h 17.9 km/h 48 % 0 mm 0.0 W/m2 CLR
23:03 -1.7 °C -8.2 °C 34293.4 hPa Calm     49 % 0 mm 0.0 W/m2 CLR
23:08 -1.8 °C -8.3 °C 34303.6 hPa Calm     49 % 0 mm 0.0 W/m2 CLR
23:13 -1.9 °C -8.2 °C 34303.6 hPa Calm     50 % 0 mm 0.0 W/m2 CLR
23:18 -1.9 °C -8.3 °C 34303.6 hPa SE 15 km/h 15 km/h 50 % 0 mm 0.0 W/m2 CLR
23:23 -1.9 °C -8.3 °C 34303.6 hPa Calm     50 % 0 mm 0.0 W/m2 CLR
23:28 -2 °C -8.4 °C 34303.6 hPa Calm     50 % 0 mm 0.0 W/m2 CLR
23:33 -2.1 °C -8.4 °C 34303.6 hPa Calm     50 % 0 mm 0.0 W/m2 CLR
23:38 -2.1 °C -8.3 °C 34303.6 hPa Calm     51 % 0 mm 0.0 W/m2 CLR
23:43 -2.2 °C -8.4 °C 34303.6 hPa Calm     51 % 0 mm 0.0 W/m2 CLR
23:48 -2.4 °C -8.4 °C 34303.6 hPa Calm     52 % 0 mm 0.0 W/m2 CLR
23:53 -2.6 °C -8.4 °C 34313.7 hPa Calm     53 % 0 mm 0.0 W/m2 CLR
23:58 -2.7 °C -8.4 °C 34313.7 hPa Calm     53 % 0 mm 0.0 W/m2 CLR
Lo Temps de Massalio
Compliments of Weather Underground - 1.25 mb